EmailTwitter


Observations de surface / Québec / LFRD

Régions: Québec | Canada | États-Unis | Europe | France | UK | Ailleurs
Station
Affichage
Infos & localisation pour LFRD | Aide pour décoder les METARs

Observations prises le 2017-09-19 à 13H00 UTC à DINARD/PLEURTUIT, FR (LFRD)

Etat du ciel: ciel variable.

Température: 18.0 Celsius

Point de rosée: 10.0 Celsius

Humidité relative: 59%

Vents: Nord-ouest à 19 km/h ou 10 noeuds.

Pression au niveau moyen de la mer: 102.40 kilopascals.

Visibilité horizontale: 6.21 milles terrestres ou 9.94 kilomètres.

Observation METAR:

LFRD 191300Z AUTO 33010KT 290V360 9999 FEW029 SCT045 18/10 Q1024 NOSIG=